Terminal Aerodrome Forecast
Issued by NWS Melbourne, FL

Current Version | Previous Version | Text Only | Print | Product List | Glossary On
Versions: 1 2 3 4 5 6 7 8 9 10 11 12 13 14 15 16
000
FTUS42 KMLB 242320
TAFDAB
TAF
KDAB 242320Z 2500/2524 08012KT P6SM VCSH SCT025 BKN060
     FM250400 09003KT P6SM SCT020
     FM251400 10011KT P6SM SCT025 BKN050
     FM251800 09012G20KT P6SM SCT030 BKN060=

USA.gov is the U.S. government's official web portal to all federal, state and local government web resources and services.